Time;durP1;ratioP1;P1;durP2;ratioP2;P2;SDS_P1;SDS_P2;PMS_P1;PMS_P2;Temp;Humidity;BMP_temperature;BMP_pressure;BME280_temperature;BME280_humidity;BME280_pressure;Samples;Min_cycle;Max_cycle;Signal;HPM_P1;HPM_P2
2021/12/26 00:00:12;;;;;;;4.35;2.72;;;;;;;;;;5041386;27;93788;-70
2021/12/26 00:02:40;;;;;;;5.18;2.90;;;;;;;;;;5026674;27;92548;-71
2021/12/26 00:05:07;;;;;;;6.75;3.28;;;;;;;;;;5057003;27;95565;-71
2021/12/26 00:07:34;;;;;;;4.13;2.38;;;;;;;;;;5059003;27;92358;-70
2021/12/26 00:10:00;;;;;;;3.30;2.50;;;;;;;;;;5059183;27;93381;-70
2021/12/26 00:12:26;;;;;;;4.30;2.78;;;;;;;;;;5058754;27;93529;-70
2021/12/26 00:14:53;;;;;;;6.53;2.67;;;;;;;;;;5040460;27;92231;-70
2021/12/26 00:17:19;;;;;;;4.70;2.30;;;;;;;;;;5059025;27;93438;-69
2021/12/26 00:19:47;;;;;;;3.50;2.63;;;;;;;;;;5058088;27;94077;-70
2021/12/26 00:22:13;;;;;;;3.00;2.40;;;;;;;;;;5059512;27;91386;-70
2021/12/26 00:24:39;;;;;;;3.03;2.20;;;;;;;;;;5061824;27;92599;-71
2021/12/26 00:27:06;;;;;;;3.10;2.65;;;;;;;;;;5059230;27;92215;-70
2021/12/26 00:29:32;;;;;;;3.03;2.55;;;;;;;;;;5039277;27;94873;-71
2021/12/26 00:31:58;;;;;;;3.03;2.42;;;;;;;;;;5040660;27;94134;-72
2021/12/26 00:34:25;;;;;;;4.03;2.60;;;;;;;;;;5040182;27;92367;-70
2021/12/26 00:36:51;;;;;;;3.63;2.63;;;;;;;;;;5040910;27;95815;-70
2021/12/26 00:39:18;;;;;;;4.65;2.53;;;;;;;;;;5058151;27;93151;-70
2021/12/26 00:41:44;;;;;;;2.63;2.30;;;;;;;;;;5058628;27;92335;-71
2021/12/26 00:44:11;;;;;;;3.22;2.47;;;;;;;;;;5058801;27;93330;-71
2021/12/26 00:46:38;;;;;;;3.65;2.97;;;;;;;;;;5062347;27;92212;-71
2021/12/26 00:49:05;;;;;;;3.17;2.42;;;;;;;;;;5043996;27;93338;-71
2021/12/26 00:51:31;;;;;;;2.80;2.60;;;;;;;;;;5064363;27;92326;-71
2021/12/26 00:53:57;;;;;;;3.88;2.63;;;;;;;;;;5038544;27;94729;-72
2021/12/26 00:56:24;;;;;;;2.72;2.38;;;;;;;;;;5057922;27;95627;-71
2021/12/26 00:58:50;;;;;;;1.92;1.63;;;;;;;;;;5039975;27;96102;-71
2021/12/26 01:01:17;;;;;;;4.82;2.25;;;;;;;;;;5040090;27;92224;-70
2021/12/26 01:03:46;;;;;;;4.20;2.65;;;;;;;;;;5040482;27;94298;-70
2021/12/26 01:06:12;;;;;;;2.97;2.40;;;;;;;;;;5043074;27;96028;-70
2021/12/26 01:08:41;;;;;;;3.47;2.70;;;;;;;;;;5040153;27;96020;-70
2021/12/26 01:11:21;;;;;;;4.85;2.78;;;;;;;;;;5040206;27;93344;-70
2021/12/26 01:13:48;;;;;;;3.92;2.92;;;;;;;;;;5040988;27;92448;-69
2021/12/26 01:16:33;;;;;;;2.97;2.55;;;;;;;;;;5045966;27;94833;-70
2021/12/26 01:19:03;;;;;;;2.53;2.22;;;;;;;;;;5042284;27;95418;-70
2021/12/26 01:21:29;;;;;;;4.82;2.78;;;;;;;;;;5058580;27;92349;-70
2021/12/26 01:24:06;;;;;;;3.80;2.40;;;;;;;;;;5039732;27;94868;-70
2021/12/26 01:26:33;;;;;;;3.35;2.40;;;;;;;;;;5022604;27;95984;-70
2021/12/26 01:28:59;;;;;;;3.95;2.58;;;;;;;;;;5042598;27;92399;-70
2021/12/26 01:31:28;;;;;;;5.15;2.70;;;;;;;;;;5039729;27;95183;-70
2021/12/26 01:34:14;;;;;;;3.15;2.40;;;;;;;;;;5056509;27;92352;-70
2021/12/26 01:37:01;;;;;;;5.70;2.70;;;;;;;;;;5058528;27;92288;-70
2021/12/26 01:39:56;;;;;;;2.35;2.15;;;;;;;;;;5002014;27;92812;-70
2021/12/26 01:42:40;;;;;;;3.45;2.35;;;;;;;;;;5039490;27;92486;-70
2021/12/26 01:45:35;;;;;;;2.72;2.13;;;;;;;;;;5037879;27;96028;-69
2021/12/26 01:48:04;;;;;;;7.43;2.83;;;;;;;;;;5039380;27;95627;-70
2021/12/26 01:50:36;;;;;;;3.10;2.63;;;;;;;;;;5038483;27;92599;-70
2021/12/26 01:53:03;;;;;;;3.85;2.70;;;;;;;;;;5042574;27;95247;-69
2021/12/26 01:55:44;;;;;;;3.35;2.70;;;;;;;;;;5039569;27;92314;-70
2021/12/26 01:58:12;;;;;;;2.63;2.13;;;;;;;;;;5039356;27;96064;-70
2021/12/26 02:00:39;;;;;;;3.72;2.58;;;;;;;;;;5039108;27;95489;-69
2021/12/26 02:03:06;;;;;;;2.95;2.38;;;;;;;;;;5039591;27;91739;-70
2021/12/26 02:05:32;;;;;;;2.50;2.30;;;;;;;;;;5042272;27;94634;-69
2021/12/26 02:08:04;;;;;;;2.35;1.75;;;;;;;;;;5047383;27;95459;-71
2021/12/26 02:10:31;;;;;;;3.88;2.63;;;;;;;;;;5037581;27;95366;-71
2021/12/26 02:12:58;;;;;;;2.78;2.10;;;;;;;;;;5039001;27;98980;-71
2021/12/26 02:15:24;;;;;;;4.28;2.78;;;;;;;;;;5041711;27;93233;-71
2021/12/26 02:17:59;;;;;;;2.63;2.40;;;;;;;;;;5057150;27;93368;-71
2021/12/26 02:23:24;;;;;;;6.43;2.67;;;;;;;;;;5039045;27;93357;-71
2021/12/26 02:28:25;;;;;;;3.47;2.33;;;;;;;;;;5039139;27;94142;-69
2021/12/26 02:30:53;;;;;;;2.90;2.28;;;;;;;;;;5038787;27;92486;-70
2021/12/26 02:33:19;;;;;;;6.65;2.67;;;;;;;;;;5038518;27;94650;-70
2021/12/26 02:35:47;;;;;;;2.60;2.38;;;;;;;;;;5041100;27;98412;-70
2021/12/26 02:38:14;;;;;;;3.30;2.38;;;;;;;;;;5050097;27;92508;-70
2021/12/26 02:40:41;;;;;;;3.97;2.40;;;;;;;;;;5043317;27;94481;-70
2021/12/26 02:43:08;;;;;;;2.30;2.15;;;;;;;;;;5044199;27;92279;-70
2021/12/26 02:45:35;;;;;;;2.78;2.28;;;;;;;;;;5060205;27;93326;-69
2021/12/26 02:48:06;;;;;;;2.22;2.03;;;;;;;;;;5038402;27;95903;-69
2021/12/26 02:50:33;;;;;;;2.95;2.47;;;;;;;;;;5038791;27;92240;-69
2021/12/26 02:53:00;;;;;;;3.50;2.35;;;;;;;;;;5039361;27;95806;-70
2021/12/26 02:55:26;;;;;;;2.65;2.28;;;;;;;;;;5056617;27;92807;-70
2021/12/26 02:57:54;;;;;;;3.92;2.60;;;;;;;;;;5056926;27;92905;-69
2021/12/26 03:00:22;;;;;;;3.08;2.05;;;;;;;;;;5039452;27;95247;-70
2021/12/26 03:02:51;;;;;;;5.28;2.45;;;;;;;;;;5040307;27;92435;-70
2021/12/26 03:05:18;;;;;;;2.53;2.33;;;;;;;;;;5041674;27;96346;-70
2021/12/26 03:07:45;;;;;;;2.83;2.28;;;;;;;;;;5041784;27;94605;-70
2021/12/26 03:10:21;;;;;;;3.88;2.55;;;;;;;;;;5059696;27;92361;-69
2021/12/26 03:12:50;;;;;;;2.65;2.40;;;;;;;;;;5040666;27;93147;-70
2021/12/26 03:15:16;;;;;;;3.28;2.53;;;;;;;;;;5041533;27;94828;-71
2021/12/26 03:17:43;;;;;;;2.60;2.40;;;;;;;;;;5060270;27;91392;-70
2021/12/26 03:20:11;;;;;;;3.97;2.25;;;;;;;;;;5048204;27;92503;-70
2021/12/26 03:22:37;;;;;;;2.42;2.22;;;;;;;;;;5061682;27;92160;-70
2021/12/26 03:25:10;;;;;;;3.20;2.80;;;;;;;;;;5059041;27;95257;-69
2021/12/26 03:27:36;;;;;;;5.15;2.55;;;;;;;;;;5060160;27;93463;-70
2021/12/26 03:30:05;;;;;;;5.28;2.75;;;;;;;;;;5059756;27;92370;-70
2021/12/26 03:32:33;;;;;;;4.32;2.53;;;;;;;;;;5041517;27;94800;-72
2021/12/26 03:34:59;;;;;;;3.45;2.47;;;;;;;;;;5041151;27;94075;-71
2021/12/26 03:37:26;;;;;;;4.68;2.10;;;;;;;;;;5041468;27;92269;-69
2021/12/26 03:39:53;;;;;;;3.20;2.40;;;;;;;;;;5041242;27;96166;-71
2021/12/26 03:42:21;;;;;;;4.78;2.40;;;;;;;;;;5044718;27;94825;-72
2021/12/26 03:44:49;;;;;;;2.40;2.20;;;;;;;;;;5041424;27;94448;-70
2021/12/26 03:47:16;;;;;;;3.28;1.95;;;;;;;;;;5059495;27;92885;-70
2021/12/26 03:49:42;;;;;;;4.28;2.30;;;;;;;;;;5023054;27;94758;-70
2021/12/26 03:52:09;;;;;;;2.83;2.33;;;;;;;;;;5041121;27;97839;-70
2021/12/26 03:54:36;;;;;;;2.35;2.15;;;;;;;;;;5040544;27;95425;-70
2021/12/26 03:57:02;;;;;;;2.40;2.15;;;;;;;;;;5040917;27;92337;-70
2021/12/26 03:59:29;;;;;;;5.57;2.53;;;;;;;;;;5041305;27;95372;-70
2021/12/26 04:01:56;;;;;;;3.55;2.50;;;;;;;;;;5041147;27;93275;-70
2021/12/26 04:04:23;;;;;;;4.47;2.38;;;;;;;;;;5044106;27;92214;-71
2021/12/26 04:06:51;;;;;;;3.25;2.38;;;;;;;;;;5041040;27;97508;-69
2021/12/26 04:09:18;;;;;;;3.45;2.58;;;;;;;;;;5040372;27;92348;-71
2021/12/26 04:11:45;;;;;;;3.60;2.30;;;;;;;;;;5041172;27;95097;-72
2021/12/26 04:14:13;;;;;;;2.90;2.63;;;;;;;;;;5037663;27;97719;-69
2021/12/26 04:16:40;;;;;;;3.10;2.35;;;;;;;;;;5040743;27;92554;-71
2021/12/26 04:19:07;;;;;;;2.75;2.20;;;;;;;;;;5058921;27;93587;-70
2021/12/26 04:21:35;;;;;;;10.05;2.05;;;;;;;;;;5040612;27;96156;-71
2021/12/26 04:24:03;;;;;;;3.40;2.55;;;;;;;;;;5040586;27;92495;-70
2021/12/26 04:26:30;;;;;;;2.83;2.60;;;;;;;;;;5043654;27;94467;-71
2021/12/26 04:28:56;;;;;;;2.60;2.40;;;;;;;;;;5023850;27;92321;-71
2021/12/26 04:31:23;;;;;;;3.63;2.55;;;;;;;;;;5041042;27;95325;-71
2021/12/26 04:33:50;;;;;;;2.58;2.03;;;;;;;;;;5040337;27;95351;-70
2021/12/26 04:36:17;;;;;;;2.42;2.22;;;;;;;;;;5040258;27;92322;-70
2021/12/26 04:38:44;;;;;;;2.67;2.30;;;;;;;;;;5038882;27;95887;-70
2021/12/26 04:41:12;;;;;;;2.88;2.33;;;;;;;;;;5040370;27;96617;-71
2021/12/26 04:43:53;;;;;;;2.67;2.17;;;;;;;;;;5013174;27;93485;-71
2021/12/26 04:46:35;;;;;;;4.15;2.50;;;;;;;;;;5041138;27;93895;-70
2021/12/26 04:49:04;;;;;;;4.05;2.45;;;;;;;;;;5043053;27;96270;-71
2021/12/26 04:51:30;;;;;;;3.28;2.20;;;;;;;;;;5039999;27;96558;-71
2021/12/26 04:54:01;;;;;;;5.40;2.40;;;;;;;;;;5039863;27;95324;-70
2021/12/26 04:56:27;;;;;;;3.15;2.33;;;;;;;;;;5040568;27;91647;-70
2021/12/26 04:58:54;;;;;;;6.82;2.53;;;;;;;;;;5040325;27;94823;-70
2021/12/26 05:01:20;;;;;;;2.67;2.47;;;;;;;;;;5039430;27;95600;-70
2021/12/26 05:03:47;;;;;;;3.65;2.45;;;;;;;;;;5056622;27;94817;-71
2021/12/26 05:06:14;;;;;;;2.40;2.20;;;;;;;;;;5057961;27;95335;-70
2021/12/26 05:08:40;;;;;;;3.75;2.25;;;;;;;;;;5039715;27;96235;-70
2021/12/26 05:11:06;;;;;;;2.72;2.40;;;;;;;;;;5042372;27;92334;-71
2021/12/26 05:13:33;;;;;;;2.53;2.08;;;;;;;;;;5039551;27;95075;-69
2021/12/26 05:15:59;;;;;;;2.60;2.35;;;;;;;;;;5039862;27;92441;-71
2021/12/26 05:18:26;;;;;;;3.42;2.20;;;;;;;;;;5057929;27;93164;-70
2021/12/26 05:20:57;;;;;;;;;;;;;;;;;;5040443;27;95317;-70
2021/12/26 05:23:24;;;;;;;2.33;2.08;;;;;;;;;;5045403;27;109265;-70
2021/12/26 05:25:50;;;;;;;2.83;2.33;;;;;;;;;;5044589;27;95468;-71
2021/12/26 05:28:17;;;;;;;3.25;2.15;;;;;;;;;;5038185;27;98309;-71
2021/12/26 05:30:45;;;;;;;1.80;1.70;;;;;;;;;;5042875;27;92407;-70
2021/12/26 05:33:16;;;;;;;2.60;2.40;;;;;;;;;;5038624;27;95043;-70
2021/12/26 05:35:44;;;;;;;2.15;2.03;;;;;;;;;;5039149;27;92449;-70
2021/12/26 05:38:10;;;;;;;2.80;2.35;;;;;;;;;;5039567;27;95446;-70
2021/12/26 05:40:40;;;;;;;3.08;2.10;;;;;;;;;;5038979;27;96123;-71
2021/12/26 05:43:06;;;;;;;2.40;2.17;;;;;;;;;;5039394;27;92337;-70
2021/12/26 05:45:33;;;;;;;3.15;2.40;;;;;;;;;;5039666;27;95662;-71
2021/12/26 05:48:10;;;;;;;4.32;2.45;;;;;;;;;;5039405;27;96088;-70
2021/12/26 05:50:37;;;;;;;4.50;2.40;;;;;;;;;;5039163;27;92414;-70
2021/12/26 05:53:08;;;;;;;4.22;2.30;;;;;;;;;;5040449;27;94895;-71
2021/12/26 05:55:35;;;;;;;2.67;2.15;;;;;;;;;;5057251;27;92422;-70
2021/12/26 05:58:02;;;;;;;2.70;2.25;;;;;;;;;;5039520;27;95898;-70
2021/12/26 06:00:28;;;;;;;2.75;1.80;;;;;;;;;;5040810;27;95971;-70
2021/12/26 06:02:57;;;;;;;4.72;2.30;;;;;;;;;;5048982;27;92352;-69
2021/12/26 06:05:24;;;;;;;3.05;2.45;;;;;;;;;;5040116;27;94869;-71
2021/12/26 06:07:50;;;;;;;2.35;2.15;;;;;;;;;;5038709;27;96107;-71
2021/12/26 06:10:17;;;;;;;4.97;2.22;;;;;;;;;;5039547;27;91644;-70
2021/12/26 06:12:43;;;;;;;2.95;2.38;;;;;;;;;;5039258;27;95046;-70
2021/12/26 06:15:10;;;;;;;2.47;2.20;;;;;;;;;;5041365;27;96020;-70
2021/12/26 06:17:37;;;;;;;2.92;2.28;;;;;;;;;;5037668;27;96164;-69
2021/12/26 06:20:21;;;;;;;2.60;2.25;;;;;;;;;;5059737;27;92645;-70
2021/12/26 06:23:13;;;;;;;3.97;2.28;;;;;;;;;;5061930;27;92429;-70
2021/12/26 06:26:00;;;;;;;3.03;2.50;;;;;;;;;;5057402;27;94085;-70
2021/12/26 06:28:40;;;;;;;3.25;2.63;;;;;;;;;;5039105;27;95121;-71
2021/12/26 06:31:39;;;;;;;2.67;2.30;;;;;;;;;;5057600;27;92242;-70
2021/12/26 06:34:23;;;;;;;5.25;2.05;;;;;;;;;;5059152;27;92400;-70
2021/12/26 06:37:08;;;;;;;2.90;2.42;;;;;;;;;;5059314;27;91855;-70
2021/12/26 06:39:54;;;;;;;3.30;2.25;;;;;;;;;;5046921;27;92357;-71
2021/12/26 06:42:42;;;;;;;2.60;2.13;;;;;;;;;;5059149;27;92608;-70
2021/12/26 06:45:27;;;;;;;3.35;2.40;;;;;;;;;;5058894;27;94576;-69
2021/12/26 06:48:13;;;;;;;2.47;2.28;;;;;;;;;;5060190;27;96675;-69
2021/12/26 06:50:43;;;;;;;2.70;2.10;;;;;;;;;;5027354;27;95390;-69
2021/12/26 06:53:11;;;;;;;2.40;2.17;;;;;;;;;;5068850;27;92201;-70
2021/12/26 06:55:38;;;;;;;4.30;2.35;;;;;;;;;;5066942;27;92842;-70
2021/12/26 06:58:04;;;;;;;2.65;2.33;;;;;;;;;;5050719;27;93786;-70
2021/12/26 07:00:31;;;;;;;4.10;2.10;;;;;;;;;;5068435;27;92152;-70
2021/12/26 07:02:58;;;;;;;5.38;2.00;;;;;;;;;;5046019;27;94995;-70
2021/12/26 07:05:24;;;;;;;5.43;2.42;;;;;;;;;;5059939;27;92361;-70
2021/12/26 07:08:00;;;;;;;4.72;2.58;;;;;;;;;;5041875;27;95197;-70
2021/12/26 07:10:27;;;;;;;2.50;2.17;;;;;;;;;;5039288;27;97808;-70
2021/12/26 07:12:53;;;;;;;3.80;2.38;;;;;;;;;;5041821;27;92370;-70
2021/12/26 07:15:32;;;;;;;2.53;2.33;;;;;;;;;;5041717;27;95593;-70
2021/12/26 07:18:00;;;;;;;2.63;2.42;;;;;;;;;;5041363;27;96089;-70
2021/12/26 07:20:29;;;;;;;3.88;2.58;;;;;;;;;;5046296;27;92306;-70
2021/12/26 07:23:16;;;;;;;3.45;2.33;;;;;;;;;;5063506;27;94139;-70
2021/12/26 07:25:45;;;;;;;2.78;2.17;;;;;;;;;;5041699;27;92338;-71
2021/12/26 07:28:15;;;;;;;4.25;2.58;;;;;;;;;;5041982;27;95101;-70
2021/12/26 07:30:41;;;;;;;4.00;2.28;;;;;;;;;;5058180;27;93322;-70
2021/12/26 07:33:08;;;;;;;2.80;2.20;;;;;;;;;;5046272;27;92243;-70
2021/12/26 07:35:35;;;;;;;4.78;2.60;;;;;;;;;;5044070;27;95001;-70
2021/12/26 07:38:20;;;;;;;2.72;2.50;;;;;;;;;;5057434;27;92568;-70
2021/12/26 07:40:47;;;;;;;2.65;2.45;;;;;;;;;;5041228;27;92322;-71
2021/12/26 07:43:23;;;;;;;3.78;2.75;;;;;;;;;;5041123;27;95175;-70
2021/12/26 07:46:08;;;;;;;4.00;2.30;;;;;;;;;;5059358;27;92549;-68
2021/12/26 07:48:34;;;;;;;2.28;1.90;;;;;;;;;;5039690;27;95789;-70
2021/12/26 07:51:04;;;;;;;2.97;2.40;;;;;;;;;;5040774;27;95933;-70
2021/12/26 07:53:51;;;;;;;4.80;2.70;;;;;;;;;;5058979;27;91498;-70
2021/12/26 07:56:35;;;;;;;3.08;2.40;;;;;;;;;;5059429;27;92223;-70
2021/12/26 07:59:20;;;;;;;3.70;2.70;;;;;;;;;;5057109;27;92609;-69
2021/12/26 08:02:05;;;;;;;3.42;2.25;;;;;;;;;;5056606;27;94672;-70
2021/12/26 08:04:50;;;;;;;3.67;2.67;;;;;;;;;;5058785;27;94773;-70
2021/12/26 08:07:29;;;;;;;3.00;2.45;;;;;;;;;;5041123;27;94820;-70
2021/12/26 08:09:58;;;;;;;2.28;2.17;;;;;;;;;;5044371;27;92365;-70
2021/12/26 08:12:24;;;;;;;3.28;2.50;;;;;;;;;;5040897;27;94900;-73
2021/12/26 08:14:51;;;;;;;4.90;2.50;;;;;;;;;;5040673;27;92909;-72
2021/12/26 08:17:17;;;;;;;3.38;2.65;;;;;;;;;;5058375;27;94632;-70
2021/12/26 08:19:44;;;;;;;5.07;2.38;;;;;;;;;;5006179;27;92618;-70
2021/12/26 08:22:11;;;;;;;3.67;2.45;;;;;;;;;;5059051;27;92230;-70
2021/12/26 08:24:37;;;;;;;3.00;2.20;;;;;;;;;;5059268;27;92776;-70
2021/12/26 08:27:03;;;;;;;2.75;2.35;;;;;;;;;;5056273;27;95315;-71
2021/12/26 08:29:30;;;;;;;3.13;2.80;;;;;;;;;;5040722;27;93564;-72
2021/12/26 08:31:59;;;;;;;3.45;2.40;;;;;;;;;;5061669;27;92852;-71
2021/12/26 08:34:26;;;;;;;4.85;2.90;;;;;;;;;;5058730;27;92340;-72
2021/12/26 08:37:01;;;;;;;3.45;2.80;;;;;;;;;;5059756;27;92955;-70
2021/12/26 08:39:28;;;;;;;5.43;2.60;;;;;;;;;;5067312;27;93558;-73
2021/12/26 08:41:55;;;;;;;4.10;2.42;;;;;;;;;;5041623;27;92295;-74
2021/12/26 08:44:22;;;;;;;3.25;2.17;;;;;;;;;;5059136;27;92405;-71
2021/12/26 08:46:49;;;;;;;2.70;2.50;;;;;;;;;;5058181;27;93639;-72
2021/12/26 08:49:15;;;;;;;2.83;2.63;;;;;;;;;;5040754;27;93426;-71
2021/12/26 08:51:42;;;;;;;3.15;2.85;;;;;;;;;;5056897;27;94757;-71
2021/12/26 08:54:09;;;;;;;3.40;2.58;;;;;;;;;;5060941;27;93102;-72
2021/12/26 08:56:36;;;;;;;2.42;2.22;;;;;;;;;;5058336;27;92981;-71
2021/12/26 08:59:03;;;;;;;2.50;2.30;;;;;;;;;;5058324;27;93385;-72
2021/12/26 09:01:30;;;;;;;2.80;2.35;;;;;;;;;;5058076;27;92401;-71
2021/12/26 09:03:56;;;;;;;6.53;2.75;;;;;;;;;;5058067;27;92483;-72
2021/12/26 09:06:23;;;;;;;4.30;2.65;;;;;;;;;;5057826;27;93314;-72
2021/12/26 09:08:49;;;;;;;3.15;2.80;;;;;;;;;;5058389;27;91607;-72
2021/12/26 09:11:16;;;;;;;3.15;2.85;;;;;;;;;;5069225;27;92430;-71
2021/12/26 09:13:43;;;;;;;3.47;3.08;;;;;;;;;;5098896;27;93642;-72
2021/12/26 09:16:09;;;;;;;5.55;3.00;;;;;;;;;;5100606;27;94631;-72
2021/12/26 09:18:36;;;;;;;5.60;2.80;;;;;;;;;;5099031;27;93617;-71
2021/12/26 09:21:03;;;;;;;3.55;3.25;;;;;;;;;;5091007;27;92311;-72
2021/12/26 09:23:29;;;;;;;3.92;2.88;;;;;;;;;;5080087;27;93370;-72
2021/12/26 09:25:55;;;;;;;4.90;2.88;;;;;;;;;;5098849;27;93534;-72
2021/12/26 09:28:22;;;;;;;3.45;2.88;;;;;;;;;;5098872;27;92329;-72
2021/12/26 09:30:48;;;;;;;5.03;3.10;;;;;;;;;;5098771;27;93516;-71
2021/12/26 09:33:19;;;;;;;4.15;3.03;;;;;;;;;;5098974;27;92755;-72
2021/12/26 09:35:49;;;;;;;5.85;3.20;;;;;;;;;;5083969;27;92721;-71
2021/12/26 09:38:16;;;;;;;3.00;2.78;;;;;;;;;;5098868;27;93900;-71
2021/12/26 09:40:42;;;;;;;3.75;3.22;;;;;;;;;;5097137;27;94651;-71
2021/12/26 09:43:09;;;;;;;4.63;3.05;;;;;;;;;;5098901;27;94753;-72
2021/12/26 09:45:35;;;;;;;3.13;2.83;;;;;;;;;;5099087;27;92640;-72
2021/12/26 09:48:01;;;;;;;6.15;3.38;;;;;;;;;;5097638;27;92271;-72
2021/12/26 09:50:28;;;;;;;3.85;3.05;;;;;;;;;;5098810;27;92909;-72
2021/12/26 09:52:54;;;;;;;5.47;2.97;;;;;;;;;;5098330;27;93535;-70
2021/12/26 09:55:21;;;;;;;5.38;3.55;;;;;;;;;;5098529;27;92327;-71
2021/12/26 09:57:48;;;;;;;4.18;2.83;;;;;;;;;;5102182;27;93699;-71
2021/12/26 10:00:28;;;;;;;4.28;2.92;;;;;;;;;;5098074;27;92245;-72
2021/12/26 10:03:14;;;;;;;4.07;2.80;;;;;;;;;;5098581;27;92972;-71
2021/12/26 10:05:56;;;;;;;2.72;2.35;;;;;;;;;;5096478;27;95463;-70
2021/12/26 10:08:22;;;;;;;3.25;2.95;;;;;;;;;;5098460;27;92958;-71
2021/12/26 10:11:05;;;;;;;3.97;3.13;;;;;;;;;;5098167;27;92709;-70
2021/12/26 10:13:48;;;;;;;3.33;2.78;;;;;;;;;;5101130;27;95152;-72
2021/12/26 10:16:16;;;;;;;5.53;3.25;;;;;;;;;;5101928;27;92358;-71
2021/12/26 10:18:43;;;;;;;3.47;3.17;;;;;;;;;;5101907;27;93221;-70
2021/12/26 10:21:27;;;;;;;5.07;3.28;;;;;;;;;;5104938;27;93507;-70
2021/12/26 10:23:57;;;;;;;3.70;3.28;;;;;;;;;;5102486;27;93429;-74
2021/12/26 10:26:25;;;;;;;3.78;3.47;;;;;;;;;;5102283;27;93006;-72
2021/12/26 10:29:03;;;;;;;4.32;3.75;;;;;;;;;;5101855;27;92159;-71
2021/12/26 10:31:30;;;;;;;4.72;3.60;;;;;;;;;;5100261;27;94678;-71
2021/12/26 10:33:57;;;;;;;4.50;3.08;;;;;;;;;;5101295;27;93645;-72
2021/12/26 10:36:41;;;;;;;4.13;3.25;;;;;;;;;;5101647;27;92221;-70
2021/12/26 10:39:22;;;;;;;3.70;3.40;;;;;;;;;;5083397;27;95462;-70
2021/12/26 10:41:51;;;;;;;5.70;3.40;;;;;;;;;;5083005;27;96269;-70
2021/12/26 10:44:20;;;;;;;3.53;3.22;;;;;;;;;;5104378;27;92398;-71
2021/12/26 10:46:48;;;;;;;7.28;3.35;;;;;;;;;;5101596;27;92356;-70
2021/12/26 10:49:25;;;;;;;3.80;3.47;;;;;;;;;;5102289;27;91911;-71
2021/12/26 10:51:51;;;;;;;4.45;3.30;;;;;;;;;;5101540;27;92288;-70
2021/12/26 10:54:20;;;;;;;4.15;3.80;;;;;;;;;;5101437;27;93160;-69
2021/12/26 10:57:02;;;;;;;5.45;3.30;;;;;;;;;;5106879;27;94676;-72
2021/12/26 10:59:29;;;;;;;5.05;3.63;;;;;;;;;;5110081;27;95919;-71
2021/12/26 11:01:56;;;;;;;6.43;3.83;;;;;;;;;;5108355;27;93693;-71
2021/12/26 11:04:23;;;;;;;4.18;3.78;;;;;;;;;;5105320;27;92164;-71
2021/12/26 11:07:04;;;;;;;3.90;3.13;;;;;;;;;;5104278;27;93823;-70
2021/12/26 11:09:31;;;;;;;6.82;3.35;;;;;;;;;;5101373;27;92335;-71
2021/12/26 11:11:58;;;;;;;4.85;3.63;;;;;;;;;;5101298;27;93476;-70
2021/12/26 11:14:25;;;;;;;8.10;4.28;;;;;;;;;;5106077;27;93177;-70
2021/12/26 11:16:51;;;;;;;5.30;3.60;;;;;;;;;;5085177;27;92288;-70
2021/12/26 11:19:37;;;;;;;5.13;3.97;;;;;;;;;;5101603;27;94832;-69
2021/12/26 11:22:04;;;;;;;6.40;3.60;;;;;;;;;;5099279;27;95569;-72
2021/12/26 11:24:31;;;;;;;5.13;4.22;;;;;;;;;;5100946;27;92213;-73
2021/12/26 11:26:58;;;;;;;5.00;3.80;;;;;;;;;;5100911;27;93918;-71
2021/12/26 11:29:24;;;;;;;6.20;4.10;;;;;;;;;;5103957;27;93568;-72
2021/12/26 11:31:53;;;;;;;4.88;4.40;;;;;;;;;;5101787;27;93085;-70
2021/12/26 11:34:20;;;;;;;5.72;4.28;;;;;;;;;;5100462;27;93209;-70
2021/12/26 11:36:49;;;;;;;4.60;4.10;;;;;;;;;;5101111;27;92195;-71
2021/12/26 11:39:26;;;;;;;6.40;4.40;;;;;;;;;;5083035;27;95619;-71
2021/12/26 11:42:21;;;;;;;7.40;4.30;;;;;;;;;;5068983;27;93124;-71
2021/12/26 11:45:30;;;;;;;5.55;4.10;;;;;;;;;;5079663;27;92324;-70
2021/12/26 11:48:23;;;;;;;8.02;4.25;;;;;;;;;;5079602;27;94829;-70
2021/12/26 11:51:14;;;;;;;6.15;4.20;;;;;;;;;;5086175;27;92685;-70
2021/12/26 11:54:21;;;;;;;5.53;4.35;;;;;;;;;;5072546;27;92250;-71
2021/12/26 11:56:54;;;;;;;9.60;4.80;;;;;;;;;;5061450;27;95334;-70
2021/12/26 11:59:30;;;;;;;5.15;4.60;;;;;;;;;;5079544;27;92843;-72
2021/12/26 12:01:56;;;;;;;4.85;4.38;;;;;;;;;;5079734;27;93702;-72
2021/12/26 12:04:24;;;;;;;7.20;4.70;;;;;;;;;;5079408;27;94041;-71
2021/12/26 12:06:54;;;;;;;7.22;4.43;;;;;;;;;;5080093;27;91721;-70
2021/12/26 12:09:24;;;;;;;5.07;4.53;;;;;;;;;;5079592;27;92621;-70
2021/12/26 12:11:57;;;;;;;5.20;4.70;;;;;;;;;;5079044;27;93700;-70
2021/12/26 12:14:41;;;;;;;5.50;5.00;;;;;;;;;;5080621;27;94796;-70
2021/12/26 12:17:15;;;;;;;7.05;5.25;;;;;;;;;;5061189;27;95906;-71
2021/12/26 12:20:00;;;;;;;6.47;4.95;;;;;;;;;;5079634;27;92399;-72
2021/12/26 12:22:26;;;;;;;6.05;4.85;;;;;;;;;;5079062;27;92291;-71
2021/12/26 12:24:53;;;;;;;8.30;4.88;;;;;;;;;;5079314;27;93654;-71
2021/12/26 12:27:22;;;;;;;7.45;5.60;;;;;;;;;;5079197;27;92215;-71
2021/12/26 12:29:52;;;;;;;5.38;4.88;;;;;;;;;;5079114;27;93389;-70
2021/12/26 12:32:23;;;;;;;6.20;5.43;;;;;;;;;;5065764;27;93489;-70
2021/12/26 12:34:54;;;;;;;6.88;5.32;;;;;;;;;;5068549;27;92261;-77
2021/12/26 12:37:36;;;;;;;6.53;5.40;;;;;;;;;;5071006;27;93317;-71
2021/12/26 12:40:14;;;;;;;11.43;5.32;;;;;;;;;;5066612;27;94724;-70
2021/12/26 12:42:43;;;;;;;11.25;7.18;;;;;;;;;;5058399;27;95737;-72
2021/12/26 12:45:09;;;;;;;13.90;7.47;;;;;;;;;;5058215;27;93638;-70
2021/12/26 12:47:37;;;;;;;8.68;6.05;;;;;;;;;;5058424;27;92258;-71
2021/12/26 12:50:03;;;;;;;12.10;6.22;;;;;;;;;;5058347;27;92929;-72
2021/12/26 12:52:40;;;;;;;9.60;7.60;;;;;;;;;;5072865;27;93206;-71
2021/12/26 12:55:12;;;;;;;11.10;7.28;;;;;;;;;;5087108;27;92288;-71
2021/12/26 12:57:45;;;;;;;9.65;7.63;;;;;;;;;;5099779;27;93844;-72
2021/12/26 13:00:32;;;;;;;7.32;5.88;;;;;;;;;;5102299;27;93193;-72
2021/12/26 13:02:59;;;;;;;6.90;5.72;;;;;;;;;;5081869;27;93662;-74
2021/12/26 13:05:31;;;;;;;8.88;6.50;;;;;;;;;;5060616;27;95601;-72
2021/12/26 13:08:06;;;;;;;6.95;6.10;;;;;;;;;;5099382;27;92157;-71
2021/12/26 13:10:32;;;;;;;8.82;6.47;;;;;;;;;;5099593;27;93397;-72
2021/12/26 13:13:05;;;;;;;11.90;7.10;;;;;;;;;;5091335;27;93450;-72
2021/12/26 13:15:31;;;;;;;11.10;7.38;;;;;;;;;;5067040;27;92408;-74
2021/12/26 13:18:03;;;;;;;12.80;8.35;;;;;;;;;;5078599;27;93565;-73
2021/12/26 13:20:30;;;;;;;16.30;8.05;;;;;;;;;;5061347;27;92898;-73
2021/12/26 13:22:58;;;;;;;13.43;9.27;;;;;;;;;;5061206;27;91608;-74
2021/12/26 13:25:29;;;;;;;15.25;9.20;;;;;;;;;;5057522;27;93537;-73
2021/12/26 13:27:56;;;;;;;18.83;9.45;;;;;;;;;;5057787;27;93315;-74
2021/12/26 13:30:23;;;;;;;12.55;8.80;;;;;;;;;;5056028;27;94786;-73
2021/12/26 13:32:50;;;;;;;7.35;6.32;;;;;;;;;;5075937;27;93369;-71
2021/12/26 13:35:17;;;;;;;8.85;7.03;;;;;;;;;;5077848;27;92333;-73
2021/12/26 13:37:43;;;;;;;15.75;9.32;;;;;;;;;;5078346;27;93288;-74
2021/12/26 13:40:11;;;;;;;28.70;21.10;;;;;;;;;;5077878;27;93481;-75
2021/12/26 13:42:38;;;;;;;14.50;11.93;;;;;;;;;;5065131;27;92445;-73
2021/12/26 13:45:05;;;;;;;11.82;7.60;;;;;;;;;;5065546;27;93872;-73
2021/12/26 13:47:39;;;;;;;12.15;8.43;;;;;;;;;;5057926;27;91637;-71
2021/12/26 13:50:10;;;;;;;11.90;10.23;;;;;;;;;;5057410;27;92354;-73
2021/12/26 13:52:37;;;;;;;12.13;10.48;;;;;;;;;;5056712;27;93444;-73
2021/12/26 13:55:04;;;;;;;22.15;11.95;;;;;;;;;;5055217;27;94677;-73
2021/12/26 13:57:30;;;;;;;14.48;10.40;;;;;;;;;;5056580;27;95627;-74
2021/12/26 14:00:01;;;;;;;12.48;8.73;;;;;;;;;;5056594;27;93559;-73
2021/12/26 14:02:28;;;;;;;14.50;9.27;;;;;;;;;;5056928;27;92317;-74
2021/12/26 14:04:56;;;;;;;11.65;9.00;;;;;;;;;;5060337;27;93337;-72
2021/12/26 14:07:24;;;;;;;9.95;7.90;;;;;;;;;;5057653;27;92359;-72
2021/12/26 14:09:52;;;;;;;14.07;9.40;;;;;;;;;;5057516;27;92955;-72
2021/12/26 14:12:31;;;;;;;12.60;7.75;;;;;;;;;;5057806;27;92738;-74
2021/12/26 14:15:34;;;;;;;14.07;9.93;;;;;;;;;;5056672;27;93486;-73
2021/12/26 14:18:09;;;;;;;13.98;11.10;;;;;;;;;;5057141;27;93734;-75
2021/12/26 14:20:42;;;;;;;17.48;11.18;;;;;;;;;;5054696;27;95971;-74
2021/12/26 14:23:22;;;;;;;14.25;9.18;;;;;;;;;;5055981;27;92286;-74
2021/12/26 14:25:51;;;;;;;25.33;12.20;;;;;;;;;;5057074;27;93452;-74
2021/12/26 14:28:18;;;;;;;15.20;10.48;;;;;;;;;;5059370;27;93562;-74
2021/12/26 14:30:49;;;;;;;36.22;24.60;;;;;;;;;;5056152;27;93349;-74
2021/12/26 14:33:16;;;;;;;27.65;18.42;;;;;;;;;;5056838;27;93633;-73
2021/12/26 14:35:44;;;;;;;21.95;15.30;;;;;;;;;;5055883;27;92450;-76
2021/12/26 14:38:12;;;;;;;20.45;13.60;;;;;;;;;;5044225;27;94872;-74
2021/12/26 14:40:52;;;;;;;31.27;21.38;;;;;;;;;;5065400;27;93831;-75
2021/12/26 14:43:21;;;;;;;26.23;18.35;;;;;;;;;;5067153;27;92258;-75
2021/12/26 14:45:56;;;;;;;44.00;27.58;;;;;;;;;;5063683;27;94639;-75
2021/12/26 14:48:24;;;;;;;115.38;67.95;;;;;;;;;;5072626;27;93747;-74
2021/12/26 14:50:54;;;;;;;46.90;30.67;;;;;;;;;;5080270;27;92429;-73
2021/12/26 14:53:22;;;;;;;13.75;9.60;;;;;;;;;;5066448;27;94581;-72
2021/12/26 14:56:01;;;;;;;38.72;26.75;;;;;;;;;;5083361;27;92400;-72
2021/12/26 14:58:37;;;;;;;15.40;10.43;;;;;;;;;;5082668;27;92609;-72
2021/12/26 15:01:04;;;;;;;51.45;31.40;;;;;;;;;;5082891;27;93518;-74
2021/12/26 15:03:34;;;;;;;21.48;13.85;;;;;;;;;;5081059;27;91657;-71
2021/12/26 15:06:10;;;;;;;15.93;10.68;;;;;;;;;;5080354;27;92241;-73